sensor_id;sensor_type;location;lat;lon;timestamp;P1;durP1;ratioP1;P2;durP2;ratioP2
1887;SDS011;944;51.574;6.980;2023-04-28T00:00:50;16.60;;;9.43;;
1887;SDS011;944;51.574;6.980;2023-04-28T00:03:18;12.87;;;7.67;;
1887;SDS011;944;51.574;6.980;2023-04-28T00:05:45;17.80;;;7.33;;
1887;SDS011;944;51.574;6.980;2023-04-28T00:08:13;22.00;;;8.00;;
1887;SDS011;944;51.574;6.980;2023-04-28T00:10:41;14.30;;;6.90;;
1887;SDS011;944;51.574;6.980;2023-04-28T00:13:08;14.53;;;7.40;;
1887;SDS011;944;51.574;6.980;2023-04-28T00:15:35;12.67;;;7.47;;
1887;SDS011;944;51.574;6.980;2023-04-28T00:18:02;13.27;;;8.20;;
1887;SDS011;944;51.574;6.980;2023-04-28T00:20:30;14.57;;;7.63;;
1887;SDS011;944;51.574;6.980;2023-04-28T00:22:57;11.43;;;7.73;;
1887;SDS011;944;51.574;6.980;2023-04-28T00:25:24;17.47;;;7.93;;
1887;SDS011;944;51.574;6.980;2023-04-28T00:27:51;14.97;;;7.90;;
1887;SDS011;944;51.574;6.980;2023-04-28T00:30:18;13.93;;;8.03;;
1887;SDS011;944;51.574;6.980;2023-04-28T00:32:45;14.40;;;7.37;;
1887;SDS011;944;51.574;6.980;2023-04-28T00:35:12;12.70;;;7.77;;
1887;SDS011;944;51.574;6.980;2023-04-28T00:37:41;13.43;;;7.83;;
1887;SDS011;944;51.574;6.980;2023-04-28T00:40:08;16.90;;;8.33;;
1887;SDS011;944;51.574;6.980;2023-04-28T00:42:36;22.07;;;8.50;;
1887;SDS011;944;51.574;6.980;2023-04-28T00:45:05;12.30;;;8.90;;
1887;SDS011;944;51.574;6.980;2023-04-28T00:47:33;17.07;;;8.97;;
1887;SDS011;944;51.574;6.980;2023-04-28T00:50:01;16.33;;;9.00;;
1887;SDS011;944;51.574;6.980;2023-04-28T00:52:30;11.60;;;8.60;;
1887;SDS011;944;51.574;6.980;2023-04-28T00:54:59;12.77;;;7.80;;
1887;SDS011;944;51.574;6.980;2023-04-28T00:57:26;14.43;;;8.23;;
1887;SDS011;944;51.574;6.980;2023-04-28T00:59:53;15.13;;;8.40;;
1887;SDS011;944;51.574;6.980;2023-04-28T01:02:25;16.53;;;9.93;;
1887;SDS011;944;51.574;6.980;2023-04-28T01:04:55;14.33;;;9.00;;
1887;SDS011;944;51.574;6.980;2023-04-28T01:07:24;15.20;;;9.23;;
1887;SDS011;944;51.574;6.980;2023-04-28T01:09:51;14.73;;;9.37;;
1887;SDS011;944;51.574;6.980;2023-04-28T01:12:19;17.13;;;9.60;;
1887;SDS011;944;51.574;6.980;2023-04-28T01:14:47;13.90;;;8.60;;
1887;SDS011;944;51.574;6.980;2023-04-28T01:17:15;16.53;;;9.30;;
1887;SDS011;944;51.574;6.980;2023-04-28T01:19:53;15.10;;;9.30;;
1887;SDS011;944;51.574;6.980;2023-04-28T01:22:21;14.30;;;9.20;;
1887;SDS011;944;51.574;6.980;2023-04-28T01:24:49;13.23;;;8.40;;
1887;SDS011;944;51.574;6.980;2023-04-28T01:27:17;15.13;;;8.63;;
1887;SDS011;944;51.574;6.980;2023-04-28T01:29:44;13.70;;;9.00;;
1887;SDS011;944;51.574;6.980;2023-04-28T01:32:12;12.03;;;9.00;;
1887;SDS011;944;51.574;6.980;2023-04-28T01:34:38;15.00;;;8.90;;
1887;SDS011;944;51.574;6.980;2023-04-28T01:37:06;23.60;;;10.10;;
1887;SDS011;944;51.574;6.980;2023-04-28T01:39:40;20.67;;;10.03;;
1887;SDS011;944;51.574;6.980;2023-04-28T01:42:10;14.50;;;10.23;;
1887;SDS011;944;51.574;6.980;2023-04-28T01:44:37;17.57;;;10.40;;
1887;SDS011;944;51.574;6.980;2023-04-28T01:47:05;16.63;;;10.27;;
1887;SDS011;944;51.574;6.980;2023-04-28T01:49:32;17.63;;;10.67;;
1887;SDS011;944;51.574;6.980;2023-04-28T01:51:59;23.30;;;10.50;;
1887;SDS011;944;51.574;6.980;2023-04-28T01:54:26;17.50;;;10.03;;
1887;SDS011;944;51.574;6.980;2023-04-28T01:56:54;15.37;;;9.70;;
1887;SDS011;944;51.574;6.980;2023-04-28T01:59:22;14.60;;;9.93;;
1887;SDS011;944;51.574;6.980;2023-04-28T02:01:49;14.80;;;10.03;;
1887;SDS011;944;51.574;6.980;2023-04-28T02:04:16;17.17;;;10.10;;
1887;SDS011;944;51.574;6.980;2023-04-28T02:06:43;15.97;;;9.87;;
1887;SDS011;944;51.574;6.980;2023-04-28T02:09:10;16.27;;;11.07;;
1887;SDS011;944;51.574;6.980;2023-04-28T02:11:37;15.87;;;10.83;;
1887;SDS011;944;51.574;6.980;2023-04-28T02:14:04;22.63;;;11.90;;
1887;SDS011;944;51.574;6.980;2023-04-28T02:16:33;19.90;;;11.40;;
1887;SDS011;944;51.574;6.980;2023-04-28T02:19:00;18.63;;;11.87;;
1887;SDS011;944;51.574;6.980;2023-04-28T02:23:08;25.43;;;13.63;;
1887;SDS011;944;51.574;6.980;2023-04-28T02:24:41;26.10;;;14.30;;
1887;SDS011;944;51.574;6.980;2023-04-28T02:27:08;26.07;;;13.63;;
1887;SDS011;944;51.574;6.980;2023-04-28T02:29:40;25.23;;;14.43;;
1887;SDS011;944;51.574;6.980;2023-04-28T02:32:18;23.67;;;16.33;;
1887;SDS011;944;51.574;6.980;2023-04-28T02:34:45;21.77;;;15.07;;
1887;SDS011;944;51.574;6.980;2023-04-28T02:37:12;31.50;;;16.40;;
1887;SDS011;944;51.574;6.980;2023-04-28T02:39:47;28.37;;;15.40;;
1887;SDS011;944;51.574;6.980;2023-04-28T02:42:14;27.73;;;15.57;;
1887;SDS011;944;51.574;6.980;2023-04-28T02:44:41;43.90;;;17.07;;
1887;SDS011;944;51.574;6.980;2023-04-28T02:47:11;31.50;;;15.93;;
1887;SDS011;944;51.574;6.980;2023-04-28T02:49:45;27.50;;;17.37;;
1887;SDS011;944;51.574;6.980;2023-04-28T02:52:13;28.47;;;17.43;;
1887;SDS011;944;51.574;6.980;2023-04-28T02:54:44;34.87;;;18.47;;
1887;SDS011;944;51.574;6.980;2023-04-28T02:57:19;29.80;;;17.70;;
1887;SDS011;944;51.574;6.980;2023-04-28T02:59:55;29.53;;;18.13;;
1887;SDS011;944;51.574;6.980;2023-04-28T03:02:40;29.43;;;16.53;;
1887;SDS011;944;51.574;6.980;2023-04-28T03:05:34;31.80;;;16.93;;
1887;SDS011;944;51.574;6.980;2023-04-28T03:08:03;28.33;;;17.10;;
1887;SDS011;944;51.574;6.980;2023-04-28T03:11:34;24.00;;;16.63;;
1887;SDS011;944;51.574;6.980;2023-04-28T03:14:32;25.90;;;16.43;;
1887;SDS011;944;51.574;6.980;2023-04-28T03:17:07;30.90;;;18.50;;
1887;SDS011;944;51.574;6.980;2023-04-28T03:20:06;30.57;;;18.20;;
1887;SDS011;944;51.574;6.980;2023-04-28T03:23:10;34.40;;;17.60;;
1887;SDS011;944;51.574;6.980;2023-04-28T03:25:43;32.30;;;18.63;;
1887;SDS011;944;51.574;6.980;2023-04-28T03:28:19;25.43;;;17.43;;
1887;SDS011;944;51.574;6.980;2023-04-28T03:30:46;33.50;;;19.23;;
1887;SDS011;944;51.574;6.980;2023-04-28T03:33:19;33.13;;;18.20;;
1887;SDS011;944;51.574;6.980;2023-04-28T03:35:48;35.40;;;18.80;;
1887;SDS011;944;51.574;6.980;2023-04-28T03:38:21;33.73;;;18.60;;
1887;SDS011;944;51.574;6.980;2023-04-28T03:40:48;33.40;;;20.17;;
1887;SDS011;944;51.574;6.980;2023-04-28T03:43:18;30.83;;;18.70;;
1887;SDS011;944;51.574;6.980;2023-04-28T03:45:45;34.70;;;19.97;;
1887;SDS011;944;51.574;6.980;2023-04-28T03:48:13;30.77;;;19.53;;
1887;SDS011;944;51.574;6.980;2023-04-28T03:50:40;37.80;;;19.43;;
1887;SDS011;944;51.574;6.980;2023-04-28T03:53:09;29.07;;;18.97;;
1887;SDS011;944;51.574;6.980;2023-04-28T03:55:38;42.97;;;19.70;;
1887;SDS011;944;51.574;6.980;2023-04-28T03:58:05;31.37;;;18.83;;
1887;SDS011;944;51.574;6.980;2023-04-28T04:00:32;26.43;;;18.10;;
1887;SDS011;944;51.574;6.980;2023-04-28T04:02:59;32.60;;;18.43;;
1887;SDS011;944;51.574;6.980;2023-04-28T04:05:27;30.83;;;20.20;;
1887;SDS011;944;51.574;6.980;2023-04-28T04:08:00;32.17;;;18.93;;
1887;SDS011;944;51.574;6.980;2023-04-28T04:10:32;34.97;;;18.90;;
1887;SDS011;944;51.574;6.980;2023-04-28T04:13:04;29.70;;;18.20;;
1887;SDS011;944;51.574;6.980;2023-04-28T04:15:31;31.17;;;18.07;;
1887;SDS011;944;51.574;6.980;2023-04-28T04:17:58;30.87;;;17.40;;
1887;SDS011;944;51.574;6.980;2023-04-28T04:20:25;32.03;;;19.77;;
1887;SDS011;944;51.574;6.980;2023-04-28T04:22:52;34.40;;;18.27;;
1887;SDS011;944;51.574;6.980;2023-04-28T04:25:19;37.57;;;21.37;;
1887;SDS011;944;51.574;6.980;2023-04-28T04:27:46;30.83;;;18.00;;
1887;SDS011;944;51.574;6.980;2023-04-28T04:30:15;33.87;;;19.40;;
1887;SDS011;944;51.574;6.980;2023-04-28T04:32:42;29.67;;;19.03;;
1887;SDS011;944;51.574;6.980;2023-04-28T04:35:09;32.10;;;18.90;;
1887;SDS011;944;51.574;6.980;2023-04-28T04:37:36;35.80;;;18.47;;
1887;SDS011;944;51.574;6.980;2023-04-28T04:40:04;33.00;;;19.30;;
1887;SDS011;944;51.574;6.980;2023-04-28T04:42:32;34.53;;;19.90;;
1887;SDS011;944;51.574;6.980;2023-04-28T04:44:59;30.70;;;19.50;;
1887;SDS011;944;51.574;6.980;2023-04-28T04:47:28;30.80;;;18.67;;
1887;SDS011;944;51.574;6.980;2023-04-28T04:49:55;31.37;;;19.17;;
1887;SDS011;944;51.574;6.980;2023-04-28T04:52:21;34.90;;;20.23;;
1887;SDS011;944;51.574;6.980;2023-04-28T04:54:51;28.00;;;19.10;;
1887;SDS011;944;51.574;6.980;2023-04-28T05:08:41;34.67;;;18.90;;
1887;SDS011;944;51.574;6.980;2023-04-28T05:12:00;30.47;;;19.03;;
1887;SDS011;944;51.574;6.980;2023-04-28T05:14:27;33.73;;;21.10;;
1887;SDS011;944;51.574;6.980;2023-04-28T05:16:57;28.30;;;18.93;;
1887;SDS011;944;51.574;6.980;2023-04-28T05:19:26;35.77;;;20.40;;
1887;SDS011;944;51.574;6.980;2023-04-28T05:21:55;41.47;;;20.73;;
1887;SDS011;944;51.574;6.980;2023-04-28T05:24:25;42.03;;;20.93;;
1887;SDS011;944;51.574;6.980;2023-04-28T05:27:03;33.90;;;21.47;;
1887;SDS011;944;51.574;6.980;2023-04-28T05:29:31;36.90;;;21.63;;
1887;SDS011;944;51.574;6.980;2023-04-28T05:32:01;39.60;;;22.20;;
1887;SDS011;944;51.574;6.980;2023-04-28T05:34:32;41.70;;;24.67;;
1887;SDS011;944;51.574;6.980;2023-04-28T05:37:09;49.37;;;22.47;;
1887;SDS011;944;51.574;6.980;2023-04-28T05:39:36;38.77;;;22.03;;
1887;SDS011;944;51.574;6.980;2023-04-28T05:42:05;34.97;;;22.20;;
1887;SDS011;944;51.574;6.980;2023-04-28T05:44:32;44.57;;;23.07;;
1887;SDS011;944;51.574;6.980;2023-04-28T05:47:01;42.07;;;23.10;;
1887;SDS011;944;51.574;6.980;2023-04-28T05:49:28;44.53;;;23.13;;
1887;SDS011;944;51.574;6.980;2023-04-28T05:51:56;37.07;;;21.50;;
1887;SDS011;944;51.574;6.980;2023-04-28T05:54:26;36.13;;;23.00;;
1887;SDS011;944;51.574;6.980;2023-04-28T05:56:53;39.20;;;22.90;;
1887;SDS011;944;51.574;6.980;2023-04-28T05:59:22;37.27;;;23.33;;
1887;SDS011;944;51.574;6.980;2023-04-28T06:01:49;44.23;;;23.70;;
1887;SDS011;944;51.574;6.980;2023-04-28T06:04:16;38.37;;;21.97;;
1887;SDS011;944;51.574;6.980;2023-04-28T06:06:45;41.27;;;23.87;;
1887;SDS011;944;51.574;6.980;2023-04-28T06:09:36;38.30;;;23.27;;
1887;SDS011;944;51.574;6.980;2023-04-28T06:15:47;39.73;;;22.27;;
1887;SDS011;944;51.574;6.980;2023-04-28T06:18:22;39.27;;;22.90;;
1887;SDS011;944;51.574;6.980;2023-04-28T06:24:22;39.70;;;23.27;;
1887;SDS011;944;51.574;6.980;2023-04-28T06:26:51;42.50;;;24.27;;
1887;SDS011;944;51.574;6.980;2023-04-28T06:29:18;43.63;;;24.33;;
1887;SDS011;944;51.574;6.980;2023-04-28T06:31:47;41.40;;;23.07;;
1887;SDS011;944;51.574;6.980;2023-04-28T06:37:18;43.17;;;21.60;;
1887;SDS011;944;51.574;6.980;2023-04-28T06:39:45;34.47;;;21.53;;
1887;SDS011;944;51.574;6.980;2023-04-28T06:42:15;35.07;;;21.60;;
1887;SDS011;944;51.574;6.980;2023-04-28T06:44:45;35.70;;;21.97;;
1887;SDS011;944;51.574;6.980;2023-04-28T06:47:18;36.07;;;20.73;;
1887;SDS011;944;51.574;6.980;2023-04-28T06:49:45;31.13;;;19.90;;
1887;SDS011;944;51.574;6.980;2023-04-28T06:52:15;33.03;;;20.50;;
1887;SDS011;944;51.574;6.980;2023-04-28T07:06:30;26.83;;;16.80;;
1887;SDS011;944;51.574;6.980;2023-04-28T07:13:34;19.90;;;14.47;;
1887;SDS011;944;51.574;6.980;2023-04-28T07:23:57;18.63;;;12.70;;
1887;SDS011;944;51.574;6.980;2023-04-28T07:31:04;23.87;;;12.50;;
1887;SDS011;944;51.574;6.980;2023-04-28T07:33:58;20.00;;;12.90;;
1887;SDS011;944;51.574;6.980;2023-04-28T07:36:26;23.97;;;12.80;;
1887;SDS011;944;51.574;6.980;2023-04-28T07:39:03;23.07;;;13.23;;
1887;SDS011;944;51.574;6.980;2023-04-28T07:41:35;18.97;;;12.50;;
1887;SDS011;944;51.574;6.980;2023-04-28T07:44:03;19.20;;;12.27;;
1887;SDS011;944;51.574;6.980;2023-04-28T07:46:35;16.77;;;11.07;;
1887;SDS011;944;51.574;6.980;2023-04-28T07:49:03;21.50;;;11.37;;
1887;SDS011;944;51.574;6.980;2023-04-28T07:51:49;14.67;;;10.20;;
1887;SDS011;944;51.574;6.980;2023-04-28T07:54:42;16.63;;;10.00;;
1887;SDS011;944;51.574;6.980;2023-04-28T08:04:44;17.83;;;9.60;;
1887;SDS011;944;51.574;6.980;2023-04-28T08:26:07;18.83;;;10.87;;
1887;SDS011;944;51.574;6.980;2023-04-28T08:32:21;16.50;;;9.10;;
1887;SDS011;944;51.574;6.980;2023-04-28T08:34:55;16.80;;;8.63;;
1887;SDS011;944;51.574;6.980;2023-04-28T08:37:30;21.40;;;10.13;;
1887;SDS011;944;51.574;6.980;2023-04-28T08:39:59;16.70;;;9.60;;
1887;SDS011;944;51.574;6.980;2023-04-28T08:42:31;15.63;;;9.40;;
1887;SDS011;944;51.574;6.980;2023-04-28T08:45:07;14.03;;;9.03;;
1887;SDS011;944;51.574;6.980;2023-04-28T08:47:51;20.20;;;9.60;;
1887;SDS011;944;51.574;6.980;2023-04-28T08:50:42;18.03;;;8.70;;
1887;SDS011;944;51.574;6.980;2023-04-28T08:53:49;14.03;;;8.20;;
1887;SDS011;944;51.574;6.980;2023-04-28T08:56:31;16.63;;;7.47;;
1887;SDS011;944;51.574;6.980;2023-04-28T09:02:49;10.70;;;7.20;;
1887;SDS011;944;51.574;6.980;2023-04-28T09:05:20;12.60;;;8.10;;
1887;SDS011;944;51.574;6.980;2023-04-28T09:13:04;11.03;;;6.77;;
1887;SDS011;944;51.574;6.980;2023-04-28T09:15:37;12.27;;;7.47;;
1887;SDS011;944;51.574;6.980;2023-04-28T09:18:59;13.33;;;8.30;;
1887;SDS011;944;51.574;6.980;2023-04-28T09:22:02;9.67;;;7.00;;
1887;SDS011;944;51.574;6.980;2023-04-28T09:27:18;9.40;;;6.60;;
1887;SDS011;944;51.574;6.980;2023-04-28T09:29:55;11.77;;;7.23;;
1887;SDS011;944;51.574;6.980;2023-04-28T09:32:25;14.50;;;7.10;;
1887;SDS011;944;51.574;6.980;2023-04-28T09:34:55;9.47;;;6.30;;
1887;SDS011;944;51.574;6.980;2023-04-28T09:37:24;8.87;;;6.43;;
1887;SDS011;944;51.574;6.980;2023-04-28T09:43:39;9.50;;;6.77;;
1887;SDS011;944;51.574;6.980;2023-04-28T09:46:09;9.47;;;6.47;;
1887;SDS011;944;51.574;6.980;2023-04-28T09:48:39;12.80;;;7.60;;
1887;SDS011;944;51.574;6.980;2023-04-28T09:51:07;9.67;;;6.90;;
1887;SDS011;944;51.574;6.980;2023-04-28T09:53:34;11.20;;;7.63;;
1887;SDS011;944;51.574;6.980;2023-04-28T09:56:02;11.60;;;7.27;;
1887;SDS011;944;51.574;6.980;2023-04-28T09:58:33;9.73;;;6.90;;
1887;SDS011;944;51.574;6.980;2023-04-28T10:01:05;8.90;;;6.30;;
1887;SDS011;944;51.574;6.980;2023-04-28T10:03:40;14.93;;;6.97;;
1887;SDS011;944;51.574;6.980;2023-04-28T10:06:26;9.40;;;7.50;;
1887;SDS011;944;51.574;6.980;2023-04-28T10:09:48;11.90;;;8.60;;
1887;SDS011;944;51.574;6.980;2023-04-28T10:12:16;11.67;;;8.27;;
1887;SDS011;944;51.574;6.980;2023-04-28T10:14:51;14.43;;;7.67;;
1887;SDS011;944;51.574;6.980;2023-04-28T10:17:20;14.53;;;6.90;;
1887;SDS011;944;51.574;6.980;2023-04-28T10:20:01;13.03;;;7.37;;
1887;SDS011;944;51.574;6.980;2023-04-28T10:22:36;12.07;;;7.57;;
1887;SDS011;944;51.574;6.980;2023-04-28T10:25:25;13.53;;;8.03;;
1887;SDS011;944;51.574;6.980;2023-04-28T10:27:55;14.10;;;8.27;;
1887;SDS011;944;51.574;6.980;2023-04-28T10:30:26;15.40;;;8.33;;
1887;SDS011;944;51.574;6.980;2023-04-28T11:09:54;15.07;;;10.17;;
1887;SDS011;944;51.574;6.980;2023-04-28T12:53:50;28.97;;;23.10;;
1887;SDS011;944;51.574;6.980;2023-04-28T12:56:25;29.50;;;22.33;;
1887;SDS011;944;51.574;6.980;2023-04-28T12:59:16;27.03;;;21.00;;
1887;SDS011;944;51.574;6.980;2023-04-28T13:02:24;25.63;;;19.07;;
1887;SDS011;944;51.574;6.980;2023-04-28T13:05:22;23.93;;;18.57;;
1887;SDS011;944;51.574;6.980;2023-04-28T13:12:33;14.70;;;11.17;;
1887;SDS011;944;51.574;6.980;2023-04-28T14:22:21;7.43;;;6.70;;
1887;SDS011;944;51.574;6.980;2023-04-28T16:26:31;8.53;;;6.37;;
1887;SDS011;944;51.574;6.980;2023-04-28T16:28:58;7.60;;;5.90;;
1887;SDS011;944;51.574;6.980;2023-04-28T16:31:25;6.67;;;5.80;;
1887;SDS011;944;51.574;6.980;2023-04-28T16:33:52;6.77;;;6.10;;
1887;SDS011;944;51.574;6.980;2023-04-28T16:36:19;5.87;;;5.17;;
1887;SDS011;944;51.574;6.980;2023-04-28T16:38:46;8.43;;;6.30;;
1887;SDS011;944;51.574;6.980;2023-04-28T16:41:13;7.93;;;6.77;;
1887;SDS011;944;51.574;6.980;2023-04-28T16:43:42;7.30;;;6.53;;
1887;SDS011;944;51.574;6.980;2023-04-28T16:46:13;8.73;;;6.27;;
1887;SDS011;944;51.574;6.980;2023-04-28T16:48:42;6.83;;;6.13;;
1887;SDS011;944;51.574;6.980;2023-04-28T16:51:09;7.47;;;6.27;;
1887;SDS011;944;51.574;6.980;2023-04-28T16:53:36;7.50;;;6.27;;
1887;SDS011;944;51.574;6.980;2023-04-28T16:56:04;8.83;;;6.90;;
1887;SDS011;944;51.574;6.980;2023-04-28T16:58:31;7.30;;;5.50;;
1887;SDS011;944;51.574;6.980;2023-04-28T17:00:59;7.90;;;6.00;;
1887;SDS011;944;51.574;6.980;2023-04-28T17:03:26;7.03;;;4.80;;
1887;SDS011;944;51.574;6.980;2023-04-28T17:05:55;6.17;;;5.30;;
1887;SDS011;944;51.574;6.980;2023-04-28T17:08:23;5.07;;;4.53;;
1887;SDS011;944;51.574;6.980;2023-04-28T17:10:50;4.67;;;4.10;;
1887;SDS011;944;51.574;6.980;2023-04-28T17:13:17;6.13;;;4.40;;
1887;SDS011;944;51.574;6.980;2023-04-28T17:15:44;4.10;;;3.80;;
1887;SDS011;944;51.574;6.980;2023-04-28T17:18:20;4.93;;;3.87;;
1887;SDS011;944;51.574;6.980;2023-04-28T17:20:47;28.63;;;5.50;;
1887;SDS011;944;51.574;6.980;2023-04-28T17:23:15;4.43;;;3.90;;
1887;SDS011;944;51.574;6.980;2023-04-28T17:25:42;4.17;;;3.77;;
1887;SDS011;944;51.574;6.980;2023-04-28T17:28:09;4.97;;;4.50;;
1887;SDS011;944;51.574;6.980;2023-04-28T17:30:37;4.53;;;4.10;;
1887;SDS011;944;51.574;6.980;2023-04-28T17:33:04;5.70;;;5.10;;
1887;SDS011;944;51.574;6.980;2023-04-28T17:35:32;5.63;;;4.30;;
1887;SDS011;944;51.574;6.980;2023-04-28T17:38:03;6.83;;;5.33;;
1887;SDS011;944;51.574;6.980;2023-04-28T17:40:32;10.67;;;4.87;;
1887;SDS011;944;51.574;6.980;2023-04-28T17:42:59;5.40;;;4.60;;
1887;SDS011;944;51.574;6.980;2023-04-28T17:45:28;5.80;;;5.30;;
1887;SDS011;944;51.574;6.980;2023-04-28T17:47:55;6.30;;;5.30;;
1887;SDS011;944;51.574;6.980;2023-04-28T17:50:24;7.80;;;5.80;;
1887;SDS011;944;51.574;6.980;2023-04-28T17:52:55;6.23;;;5.63;;
1887;SDS011;944;51.574;6.980;2023-04-28T17:55:23;5.90;;;5.30;;
1887;SDS011;944;51.574;6.980;2023-04-28T17:57:50;8.70;;;5.83;;
1887;SDS011;944;51.574;6.980;2023-04-28T18:00:17;6.73;;;6.03;;
1887;SDS011;944;51.574;6.980;2023-04-28T18:02:44;7.63;;;6.80;;
1887;SDS011;944;51.574;6.980;2023-04-28T18:05:11;7.33;;;6.33;;
1887;SDS011;944;51.574;6.980;2023-04-28T18:07:39;6.50;;;5.60;;
1887;SDS011;944;51.574;6.980;2023-04-28T18:10:08;6.40;;;5.80;;
1887;SDS011;944;51.574;6.980;2023-04-28T18:12:35;6.37;;;5.60;;
1887;SDS011;944;51.574;6.980;2023-04-28T18:15:05;9.63;;;6.37;;
1887;SDS011;944;51.574;6.980;2023-04-28T18:17:33;7.77;;;5.93;;
1887;SDS011;944;51.574;6.980;2023-04-28T18:20:00;10.03;;;6.90;;
1887;SDS011;944;51.574;6.980;2023-04-28T18:22:30;9.33;;;8.43;;
1887;SDS011;944;51.574;6.980;2023-04-28T18:25:00;10.47;;;9.37;;
1887;SDS011;944;51.574;6.980;2023-04-28T18:27:50;12.03;;;9.73;;
1887;SDS011;944;51.574;6.980;2023-04-28T18:30:28;10.73;;;9.63;;
1887;SDS011;944;51.574;6.980;2023-04-28T18:33:03;13.03;;;10.10;;
1887;SDS011;944;51.574;6.980;2023-04-28T18:35:32;14.03;;;10.83;;
1887;SDS011;944;51.574;6.980;2023-04-28T18:38:06;13.73;;;12.30;;
1887;SDS011;944;51.574;6.980;2023-04-28T18:40:52;13.97;;;12.00;;
1887;SDS011;944;51.574;6.980;2023-04-28T18:43:32;14.80;;;12.70;;
1887;SDS011;944;51.574;6.980;2023-04-28T18:46:04;17.63;;;13.43;;
1887;SDS011;944;51.574;6.980;2023-04-28T18:48:46;15.63;;;13.00;;
1887;SDS011;944;51.574;6.980;2023-04-28T18:51:44;19.60;;;13.73;;
1887;SDS011;944;51.574;6.980;2023-04-28T18:59:17;18.40;;;15.80;;
1887;SDS011;944;51.574;6.980;2023-04-28T19:02:37;18.40;;;13.77;;
1887;SDS011;944;51.574;6.980;2023-04-28T19:05:08;18.20;;;14.67;;
1887;SDS011;944;51.574;6.980;2023-04-28T19:07:47;18.63;;;14.50;;
1887;SDS011;944;51.574;6.980;2023-04-28T20:12:29;23.73;;;16.43;;
1887;SDS011;944;51.574;6.980;2023-04-28T20:14:57;24.30;;;18.50;;
1887;SDS011;944;51.574;6.980;2023-04-28T20:17:25;24.33;;;17.10;;
1887;SDS011;944;51.574;6.980;2023-04-28T20:19:54;23.37;;;18.57;;
1887;SDS011;944;51.574;6.980;2023-04-28T20:22:28;22.97;;;18.80;;
1887;SDS011;944;51.574;6.980;2023-04-28T20:25:13;26.30;;;19.17;;
1887;SDS011;944;51.574;6.980;2023-04-28T20:27:41;27.30;;;20.30;;
1887;SDS011;944;51.574;6.980;2023-04-28T20:30:21;31.50;;;20.70;;
1887;SDS011;944;51.574;6.980;2023-04-28T20:32:57;31.53;;;20.83;;
1887;SDS011;944;51.574;6.980;2023-04-28T20:35:24;32.27;;;21.03;;
1887;SDS011;944;51.574;6.980;2023-04-28T20:37:51;37.00;;;21.07;;
1887;SDS011;944;51.574;6.980;2023-04-28T20:40:19;33.80;;;22.03;;
1887;SDS011;944;51.574;6.980;2023-04-28T20:45:52;27.13;;;18.93;;
1887;SDS011;944;51.574;6.980;2023-04-28T20:48:32;28.07;;;19.00;;
1887;SDS011;944;51.574;6.980;2023-04-28T20:51:03;29.60;;;18.60;;
1887;SDS011;944;51.574;6.980;2023-04-28T20:53:54;31.20;;;19.10;;
1887;SDS011;944;51.574;6.980;2023-04-28T20:56:33;26.50;;;18.30;;
1887;SDS011;944;51.574;6.980;2023-04-28T20:59:09;27.70;;;17.67;;
1887;SDS011;944;51.574;6.980;2023-04-28T21:01:37;23.40;;;17.37;;
1887;SDS011;944;51.574;6.980;2023-04-28T21:41:50;32.27;;;19.23;;
1887;SDS011;944;51.574;6.980;2023-04-28T21:44:58;33.10;;;20.47;;
1887;SDS011;944;51.574;6.980;2023-04-28T21:51:22;29.43;;;18.77;;
1887;SDS011;944;51.574;6.980;2023-04-28T21:53:51;27.73;;;18.23;;
1887;SDS011;944;51.574;6.980;2023-04-28T22:02:38;33.87;;;21.30;;
1887;SDS011;944;51.574;6.980;2023-04-28T22:08:21;38.17;;;20.50;;
1887;SDS011;944;51.574;6.980;2023-04-28T22:10:55;33.97;;;19.53;;
1887;SDS011;944;51.574;6.980;2023-04-28T22:13:34;38.77;;;20.73;;
1887;SDS011;944;51.574;6.980;2023-04-28T22:16:01;36.67;;;21.20;;
1887;SDS011;944;51.574;6.980;2023-04-28T22:18:32;36.17;;;21.93;;
1887;SDS011;944;51.574;6.980;2023-04-28T22:20:59;37.97;;;21.37;;
1887;SDS011;944;51.574;6.980;2023-04-28T22:23:32;45.40;;;23.47;;
1887;SDS011;944;51.574;6.980;2023-04-28T22:26:02;43.90;;;23.17;;
1887;SDS011;944;51.574;6.980;2023-04-28T22:28:39;46.00;;;24.10;;
1887;SDS011;944;51.574;6.980;2023-04-28T22:31:30;51.67;;;24.27;;
1887;SDS011;944;51.574;6.980;2023-04-28T22:36:49;52.27;;;25.90;;
1887;SDS011;944;51.574;6.980;2023-04-28T22:39:54;60.83;;;26.63;;
1887;SDS011;944;51.574;6.980;2023-04-28T22:43:00;49.33;;;24.93;;
1887;SDS011;944;51.574;6.980;2023-04-28T22:45:27;54.37;;;24.73;;
1887;SDS011;944;51.574;6.980;2023-04-28T22:48:03;58.67;;;27.30;;
1887;SDS011;944;51.574;6.980;2023-04-28T22:50:44;58.20;;;26.47;;
1887;SDS011;944;51.574;6.980;2023-04-28T22:53:14;64.23;;;27.50;;
1887;SDS011;944;51.574;6.980;2023-04-28T22:56:17;58.87;;;26.57;;
1887;SDS011;944;51.574;6.980;2023-04-28T22:59:04;68.37;;;28.77;;
1887;SDS011;944;51.574;6.980;2023-04-28T23:01:41;56.13;;;26.23;;
1887;SDS011;944;51.574;6.980;2023-04-28T23:04:22;65.47;;;28.37;;
1887;SDS011;944;51.574;6.980;2023-04-28T23:06:52;71.70;;;31.40;;
1887;SDS011;944;51.574;6.980;2023-04-28T23:09:26;65.90;;;30.47;;
1887;SDS011;944;51.574;6.980;2023-04-28T23:11:55;76.50;;;33.70;;
1887;SDS011;944;51.574;6.980;2023-04-28T23:18:10;91.03;;;35.70;;
1887;SDS011;944;51.574;6.980;2023-04-28T23:20:39;90.73;;;35.40;;
1887;SDS011;944;51.574;6.980;2023-04-28T23:23:10;79.60;;;33.40;;
1887;SDS011;944;51.574;6.980;2023-04-28T23:25:39;83.07;;;36.70;;
1887;SDS011;944;51.574;6.980;2023-04-28T23:28:06;81.40;;;36.57;;
1887;SDS011;944;51.574;6.980;2023-04-28T23:30:34;81.50;;;36.13;;
1887;SDS011;944;51.574;6.980;2023-04-28T23:33:04;87.60;;;37.50;;
1887;SDS011;944;51.574;6.980;2023-04-28T23:35:31;78.77;;;36.97;;
1887;SDS011;944;51.574;6.980;2023-04-28T23:38:00;83.60;;;37.37;;
1887;SDS011;944;51.574;6.980;2023-04-28T23:40:31;83.60;;;36.67;;
1887;SDS011;944;51.574;6.980;2023-04-28T23:43:16;77.50;;;34.73;;
1887;SDS011;944;51.574;6.980;2023-04-28T23:45:43;83.63;;;36.13;;
1887;SDS011;944;51.574;6.980;2023-04-28T23:48:10;85.13;;;39.27;;
1887;SDS011;944;51.574;6.980;2023-04-28T23:50:37;84.50;;;37.83;;
1887;SDS011;944;51.574;6.980;2023-04-28T23:53:04;87.07;;;38.53;;
1887;SDS011;944;51.574;6.980;2023-04-28T23:55:32;88.20;;;39.83;;
1887;SDS011;944;51.574;6.980;2023-04-28T23:57:59;86.67;;;39.50;;
